sensor_id;sensor_type;location;lat;lon;timestamp;temperature;humidity
23721;DHT22;42950;52.134;5.578;2024-02-14T00:01:48;8.30;99.90
23721;DHT22;42950;52.134;5.578;2024-02-14T00:04:14;8.20;99.90
23721;DHT22;42950;52.134;5.578;2024-02-14T00:06:40;8.30;99.90
23721;DHT22;42950;52.134;5.578;2024-02-14T00:09:05;8.30;99.90
23721;DHT22;42950;52.134;5.578;2024-02-14T00:11:32;8.30;99.90
23721;DHT22;42950;52.134;5.578;2024-02-14T00:13:58;8.30;99.90
23721;DHT22;42950;52.134;5.578;2024-02-14T00:16:25;8.30;99.90
23721;DHT22;42950;52.134;5.578;2024-02-14T00:18:51;8.30;99.90
23721;DHT22;42950;52.134;5.578;2024-02-14T00:21:16;8.30;99.90
23721;DHT22;42950;52.134;5.578;2024-02-14T00:23:42;8.40;99.90
23721;DHT22;42950;52.134;5.578;2024-02-14T00:26:09;8.40;99.90
23721;DHT22;42950;52.134;5.578;2024-02-14T00:28:34;8.40;99.90
23721;DHT22;42950;52.134;5.578;2024-02-14T00:31:00;8.40;99.90
23721;DHT22;42950;52.134;5.578;2024-02-14T00:33:25;8.40;99.90
23721;DHT22;42950;52.134;5.578;2024-02-14T00:35:51;8.50;99.90
23721;DHT22;42950;52.134;5.578;2024-02-14T00:38:17;8.40;99.90
23721;DHT22;42950;52.134;5.578;2024-02-14T00:40:43;8.50;99.90
23721;DHT22;42950;52.134;5.578;2024-02-14T00:43:08;8.50;99.90
23721;DHT22;42950;52.134;5.578;2024-02-14T00:45:34;8.50;99.90
23721;DHT22;42950;52.134;5.578;2024-02-14T00:48:01;8.50;99.90
23721;DHT22;42950;52.134;5.578;2024-02-14T00:50:27;8.50;99.90
23721;DHT22;42950;52.134;5.578;2024-02-14T00:52:52;8.60;99.90
23721;DHT22;42950;52.134;5.578;2024-02-14T00:55:18;8.60;99.90
23721;DHT22;42950;52.134;5.578;2024-02-14T00:57:43;8.60;99.90
23721;DHT22;42950;52.134;5.578;2024-02-14T01:00:09;8.60;99.90
23721;DHT22;42950;52.134;5.578;2024-02-14T01:02:35;8.60;99.90
23721;DHT22;42950;52.134;5.578;2024-02-14T01:05:01;8.60;99.90
23721;DHT22;42950;52.134;5.578;2024-02-14T01:07:27;8.60;99.90
23721;DHT22;42950;52.134;5.578;2024-02-14T01:09:53;8.70;99.90
23721;DHT22;42950;52.134;5.578;2024-02-14T01:12:18;8.70;99.90
23721;DHT22;42950;52.134;5.578;2024-02-14T01:14:44;8.70;99.90
23721;DHT22;42950;52.134;5.578;2024-02-14T01:17:10;8.70;99.90
23721;DHT22;42950;52.134;5.578;2024-02-14T01:19:36;8.80;99.90
23721;DHT22;42950;52.134;5.578;2024-02-14T01:22:02;8.80;99.90
23721;DHT22;42950;52.134;5.578;2024-02-14T01:24:28;8.80;99.90
23721;DHT22;42950;52.134;5.578;2024-02-14T01:26:55;8.80;99.90
23721;DHT22;42950;52.134;5.578;2024-02-14T01:29:22;8.80;99.90
23721;DHT22;42950;52.134;5.578;2024-02-14T01:31:49;8.90;99.90
23721;DHT22;42950;52.134;5.578;2024-02-14T01:34:15;8.90;99.90
23721;DHT22;42950;52.134;5.578;2024-02-14T01:36:41;8.90;99.90
23721;DHT22;42950;52.134;5.578;2024-02-14T01:39:07;8.90;99.90
23721;DHT22;42950;52.134;5.578;2024-02-14T01:41:37;9.00;99.90
23721;DHT22;42950;52.134;5.578;2024-02-14T01:44:03;9.00;99.90
23721;DHT22;42950;52.134;5.578;2024-02-14T01:46:28;9.00;99.90
23721;DHT22;42950;52.134;5.578;2024-02-14T01:48:54;9.00;99.90
23721;DHT22;42950;52.134;5.578;2024-02-14T01:51:22;9.00;99.90
23721;DHT22;42950;52.134;5.578;2024-02-14T01:53:50;9.00;99.90
23721;DHT22;42950;52.134;5.578;2024-02-14T01:56:16;9.10;99.90
23721;DHT22;42950;52.134;5.578;2024-02-14T01:58:42;9.00;99.90
23721;DHT22;42950;52.134;5.578;2024-02-14T02:01:08;9.10;99.90
23721;DHT22;42950;52.134;5.578;2024-02-14T02:03:35;9.10;99.90
23721;DHT22;42950;52.134;5.578;2024-02-14T02:06:05;9.20;99.90
23721;DHT22;42950;52.134;5.578;2024-02-14T02:08:31;9.20;99.90
23721;DHT22;42950;52.134;5.578;2024-02-14T02:10:58;9.20;99.90
23721;DHT22;42950;52.134;5.578;2024-02-14T02:13:23;9.20;99.90
23721;DHT22;42950;52.134;5.578;2024-02-14T02:15:52;9.30;99.90
23721;DHT22;42950;52.134;5.578;2024-02-14T02:18:18;9.30;99.90
23721;DHT22;42950;52.134;5.578;2024-02-14T02:20:45;9.30;99.90
23721;DHT22;42950;52.134;5.578;2024-02-14T02:23:11;9.30;99.90
23721;DHT22;42950;52.134;5.578;2024-02-14T02:25:43;9.30;99.90
23721;DHT22;42950;52.134;5.578;2024-02-14T02:28:09;9.30;99.90
23721;DHT22;42950;52.134;5.578;2024-02-14T02:30:36;9.40;99.90
23721;DHT22;42950;52.134;5.578;2024-02-14T02:33:02;9.40;99.90
23721;DHT22;42950;52.134;5.578;2024-02-14T02:35:30;9.40;99.90
23721;DHT22;42950;52.134;5.578;2024-02-14T02:37:56;9.40;99.90
23721;DHT22;42950;52.134;5.578;2024-02-14T02:40:23;9.40;99.90
23721;DHT22;42950;52.134;5.578;2024-02-14T02:42:48;9.40;99.90
23721;DHT22;42950;52.134;5.578;2024-02-14T02:45:15;9.40;99.90
23721;DHT22;42950;52.134;5.578;2024-02-14T02:47:41;9.40;99.90
23721;DHT22;42950;52.134;5.578;2024-02-14T02:50:07;9.40;99.90
23721;DHT22;42950;52.134;5.578;2024-02-14T02:52:33;9.40;99.90
23721;DHT22;42950;52.134;5.578;2024-02-14T02:54:59;9.40;99.90
23721;DHT22;42950;52.134;5.578;2024-02-14T02:57:26;9.50;99.90
23721;DHT22;42950;52.134;5.578;2024-02-14T02:59:52;9.40;99.90
23721;DHT22;42950;52.134;5.578;2024-02-14T03:02:19;9.50;99.90
23721;DHT22;42950;52.134;5.578;2024-02-14T03:04:46;9.50;99.90
23721;DHT22;42950;52.134;5.578;2024-02-14T03:07:12;9.50;99.90
23721;DHT22;42950;52.134;5.578;2024-02-14T03:09:37;9.40;99.90
23721;DHT22;42950;52.134;5.578;2024-02-14T03:12:04;9.40;99.90
23721;DHT22;42950;52.134;5.578;2024-02-14T03:14:31;9.40;99.90
23721;DHT22;42950;52.134;5.578;2024-02-14T03:17:02;9.50;99.90
23721;DHT22;42950;52.134;5.578;2024-02-14T03:19:28;9.40;99.90
23721;DHT22;42950;52.134;5.578;2024-02-14T03:21:55;9.50;99.90
23721;DHT22;42950;52.134;5.578;2024-02-14T03:24:22;9.40;99.90
23721;DHT22;42950;52.134;5.578;2024-02-14T03:26:51;9.50;99.90
23721;DHT22;42950;52.134;5.578;2024-02-14T03:29:17;9.50;99.90
23721;DHT22;42950;52.134;5.578;2024-02-14T03:31:45;9.50;99.90
23721;DHT22;42950;52.134;5.578;2024-02-14T03:34:10;9.60;99.90
23721;DHT22;42950;52.134;5.578;2024-02-14T03:36:39;9.60;99.90
23721;DHT22;42950;52.134;5.578;2024-02-14T03:39:05;9.60;99.90
23721;DHT22;42950;52.134;5.578;2024-02-14T03:41:32;9.60;99.90
23721;DHT22;42950;52.134;5.578;2024-02-14T03:43:58;9.60;99.90
23721;DHT22;42950;52.134;5.578;2024-02-14T03:46:26;9.70;99.90
23721;DHT22;42950;52.134;5.578;2024-02-14T03:48:53;9.70;99.90
23721;DHT22;42950;52.134;5.578;2024-02-14T03:51:19;9.70;99.90
23721;DHT22;42950;52.134;5.578;2024-02-14T03:53:45;9.80;99.90
23721;DHT22;42950;52.134;5.578;2024-02-14T03:56:10;9.80;99.90
23721;DHT22;42950;52.134;5.578;2024-02-14T03:58:38;9.80;99.90
23721;DHT22;42950;52.134;5.578;2024-02-14T04:01:04;9.80;99.90
23721;DHT22;42950;52.134;5.578;2024-02-14T04:03:30;9.90;99.90
23721;DHT22;42950;52.134;5.578;2024-02-14T04:05:56;9.90;99.90
23721;DHT22;42950;52.134;5.578;2024-02-14T04:08:21;10.00;99.90
23721;DHT22;42950;52.134;5.578;2024-02-14T04:10:47;9.90;99.90
23721;DHT22;42950;52.134;5.578;2024-02-14T04:13:15;10.00;99.90
23721;DHT22;42950;52.134;5.578;2024-02-14T04:15:41;10.00;99.90
23721;DHT22;42950;52.134;5.578;2024-02-14T04:18:08;10.10;99.90
23721;DHT22;42950;52.134;5.578;2024-02-14T04:20:34;10.10;99.90
23721;DHT22;42950;52.134;5.578;2024-02-14T04:22:59;10.10;99.90
23721;DHT22;42950;52.134;5.578;2024-02-14T04:25:25;10.10;99.90
23721;DHT22;42950;52.134;5.578;2024-02-14T04:27:51;10.20;99.90
23721;DHT22;42950;52.134;5.578;2024-02-14T04:30:16;10.20;99.90
23721;DHT22;42950;52.134;5.578;2024-02-14T04:32:42;10.20;99.90
23721;DHT22;42950;52.134;5.578;2024-02-14T04:35:09;10.20;99.90
23721;DHT22;42950;52.134;5.578;2024-02-14T04:37:35;10.30;99.90
23721;DHT22;42950;52.134;5.578;2024-02-14T04:40:01;10.30;99.90
23721;DHT22;42950;52.134;5.578;2024-02-14T04:42:27;10.30;99.90
23721;DHT22;42950;52.134;5.578;2024-02-14T04:44:52;10.30;99.90
23721;DHT22;42950;52.134;5.578;2024-02-14T04:47:18;10.40;99.90
23721;DHT22;42950;52.134;5.578;2024-02-14T04:49:43;10.40;99.90
23721;DHT22;42950;52.134;5.578;2024-02-14T04:52:09;10.30;99.90
23721;DHT22;42950;52.134;5.578;2024-02-14T04:54:35;10.40;99.90
23721;DHT22;42950;52.134;5.578;2024-02-14T04:57:01;10.40;99.90
23721;DHT22;42950;52.134;5.578;2024-02-14T04:59:26;10.40;99.90
23721;DHT22;42950;52.134;5.578;2024-02-14T05:01:52;10.50;99.90
23721;DHT22;42950;52.134;5.578;2024-02-14T05:04:19;10.40;99.90
23721;DHT22;42950;52.134;5.578;2024-02-14T05:06:46;10.50;99.90
23721;DHT22;42950;52.134;5.578;2024-02-14T05:09:11;10.50;99.90
23721;DHT22;42950;52.134;5.578;2024-02-14T05:11:37;10.50;99.90
23721;DHT22;42950;52.134;5.578;2024-02-14T05:14:03;10.50;99.90
23721;DHT22;42950;52.134;5.578;2024-02-14T05:16:29;10.50;99.90
23721;DHT22;42950;52.134;5.578;2024-02-14T05:18:54;10.50;99.90
23721;DHT22;42950;52.134;5.578;2024-02-14T05:21:20;10.50;99.90
23721;DHT22;42950;52.134;5.578;2024-02-14T05:23:47;10.50;99.90
23721;DHT22;42950;52.134;5.578;2024-02-14T05:26:12;10.50;99.90
23721;DHT22;42950;52.134;5.578;2024-02-14T05:28:38;10.50;99.90
23721;DHT22;42950;52.134;5.578;2024-02-14T05:31:05;10.50;99.90
23721;DHT22;42950;52.134;5.578;2024-02-14T05:33:30;10.50;99.90
23721;DHT22;42950;52.134;5.578;2024-02-14T05:35:56;10.60;99.90
23721;DHT22;42950;52.134;5.578;2024-02-14T05:38:22;10.60;99.90
23721;DHT22;42950;52.134;5.578;2024-02-14T05:40:50;10.60;99.90
23721;DHT22;42950;52.134;5.578;2024-02-14T05:43:16;10.60;99.90
23721;DHT22;42950;52.134;5.578;2024-02-14T05:45:43;10.60;99.90
23721;DHT22;42950;52.134;5.578;2024-02-14T05:48:09;10.60;99.90
23721;DHT22;42950;52.134;5.578;2024-02-14T05:50:34;10.60;99.90
23721;DHT22;42950;52.134;5.578;2024-02-14T05:53:01;10.60;99.90
23721;DHT22;42950;52.134;5.578;2024-02-14T05:55:27;10.60;99.90
23721;DHT22;42950;52.134;5.578;2024-02-14T05:57:53;10.60;99.90
23721;DHT22;42950;52.134;5.578;2024-02-14T06:00:20;10.60;99.90
23721;DHT22;42950;52.134;5.578;2024-02-14T06:02:48;10.60;99.90
23721;DHT22;42950;52.134;5.578;2024-02-14T06:05:15;10.60;99.90
23721;DHT22;42950;52.134;5.578;2024-02-14T06:07:41;10.60;99.90
23721;DHT22;42950;52.134;5.578;2024-02-14T06:10:07;10.60;99.90
23721;DHT22;42950;52.134;5.578;2024-02-14T06:12:33;10.60;99.90
23721;DHT22;42950;52.134;5.578;2024-02-14T06:15:00;10.60;99.90
23721;DHT22;42950;52.134;5.578;2024-02-14T06:17:26;10.50;99.90
23721;DHT22;42950;52.134;5.578;2024-02-14T06:19:52;10.60;99.90
23721;DHT22;42950;52.134;5.578;2024-02-14T06:22:18;10.50;99.90
23721;DHT22;42950;52.134;5.578;2024-02-14T06:24:43;10.50;99.90
23721;DHT22;42950;52.134;5.578;2024-02-14T06:27:09;10.50;99.90
23721;DHT22;42950;52.134;5.578;2024-02-14T06:29:35;10.50;99.90
23721;DHT22;42950;52.134;5.578;2024-02-14T06:32:00;10.40;99.90
23721;DHT22;42950;52.134;5.578;2024-02-14T06:34:26;10.40;99.90
23721;DHT22;42950;52.134;5.578;2024-02-14T06:36:53;10.50;99.90
23721;DHT22;42950;52.134;5.578;2024-02-14T06:39:19;10.50;99.90
23721;DHT22;42950;52.134;5.578;2024-02-14T06:41:46;10.40;99.90
23721;DHT22;42950;52.134;5.578;2024-02-14T06:44:12;10.50;99.90
23721;DHT22;42950;52.134;5.578;2024-02-14T06:46:38;10.40;99.90
23721;DHT22;42950;52.134;5.578;2024-02-14T06:49:04;10.50;99.90
23721;DHT22;42950;52.134;5.578;2024-02-14T06:51:30;10.50;99.90
23721;DHT22;42950;52.134;5.578;2024-02-14T06:53:56;10.50;99.90
23721;DHT22;42950;52.134;5.578;2024-02-14T06:56:22;10.50;99.90
23721;DHT22;42950;52.134;5.578;2024-02-14T06:58:47;10.40;99.90
23721;DHT22;42950;52.134;5.578;2024-02-14T07:01:18;10.40;99.90
23721;DHT22;42950;52.134;5.578;2024-02-14T07:03:47;10.50;99.90
23721;DHT22;42950;52.134;5.578;2024-02-14T07:06:13;10.50;99.90
23721;DHT22;42950;52.134;5.578;2024-02-14T07:08:41;10.40;99.90
23721;DHT22;42950;52.134;5.578;2024-02-14T07:11:07;10.50;99.90
23721;DHT22;42950;52.134;5.578;2024-02-14T07:13:33;10.40;99.90
23721;DHT22;42950;52.134;5.578;2024-02-14T07:15:58;10.40;99.90
23721;DHT22;42950;52.134;5.578;2024-02-14T07:18:24;10.50;99.90
23721;DHT22;42950;52.134;5.578;2024-02-14T07:20:49;10.40;99.90
23721;DHT22;42950;52.134;5.578;2024-02-14T07:23:16;10.50;99.90
23721;DHT22;42950;52.134;5.578;2024-02-14T07:25:42;10.50;99.90
23721;DHT22;42950;52.134;5.578;2024-02-14T07:28:08;10.50;99.90
23721;DHT22;42950;52.134;5.578;2024-02-14T07:30:34;10.50;99.90
23721;DHT22;42950;52.134;5.578;2024-02-14T07:32:59;10.50;99.90
23721;DHT22;42950;52.134;5.578;2024-02-14T07:35:25;10.50;99.90
23721;DHT22;42950;52.134;5.578;2024-02-14T07:37:51;10.50;99.90
23721;DHT22;42950;52.134;5.578;2024-02-14T07:40:17;10.50;99.90
23721;DHT22;42950;52.134;5.578;2024-02-14T07:42:42;10.50;99.90
23721;DHT22;42950;52.134;5.578;2024-02-14T07:45:08;10.60;99.90
23721;DHT22;42950;52.134;5.578;2024-02-14T07:47:34;10.60;99.90
23721;DHT22;42950;52.134;5.578;2024-02-14T07:50:00;10.60;99.90
23721;DHT22;42950;52.134;5.578;2024-02-14T07:52:25;10.60;99.90
23721;DHT22;42950;52.134;5.578;2024-02-14T07:54:52;10.60;99.90
23721;DHT22;42950;52.134;5.578;2024-02-14T07:57:19;10.60;99.90
23721;DHT22;42950;52.134;5.578;2024-02-14T07:59:44;10.60;99.90
23721;DHT22;42950;52.134;5.578;2024-02-14T08:02:10;10.60;99.90
23721;DHT22;42950;52.134;5.578;2024-02-14T08:04:35;10.60;99.90
23721;DHT22;42950;52.134;5.578;2024-02-14T08:07:01;10.60;99.90
23721;DHT22;42950;52.134;5.578;2024-02-14T08:09:26;10.60;99.90
23721;DHT22;42950;52.134;5.578;2024-02-14T08:11:52;10.70;99.90
23721;DHT22;42950;52.134;5.578;2024-02-14T08:14:18;10.60;99.90
23721;DHT22;42950;52.134;5.578;2024-02-14T08:16:44;10.70;99.90
23721;DHT22;42950;52.134;5.578;2024-02-14T08:19:09;10.60;99.90
23721;DHT22;42950;52.134;5.578;2024-02-14T08:21:35;10.60;99.90
23721;DHT22;42950;52.134;5.578;2024-02-14T08:24:01;10.60;99.90
23721;DHT22;42950;52.134;5.578;2024-02-14T08:26:27;10.70;99.90
23721;DHT22;42950;52.134;5.578;2024-02-14T08:28:53;10.70;99.90
23721;DHT22;42950;52.134;5.578;2024-02-14T08:31:20;10.70;99.90
23721;DHT22;42950;52.134;5.578;2024-02-14T08:33:48;10.70;99.90
23721;DHT22;42950;52.134;5.578;2024-02-14T08:36:16;10.70;99.90
23721;DHT22;42950;52.134;5.578;2024-02-14T08:38:42;10.70;99.90
23721;DHT22;42950;52.134;5.578;2024-02-14T08:41:08;10.80;99.90
23721;DHT22;42950;52.134;5.578;2024-02-14T08:43:33;10.70;99.90
23721;DHT22;42950;52.134;5.578;2024-02-14T08:45:59;10.70;99.90
23721;DHT22;42950;52.134;5.578;2024-02-14T08:48:25;10.80;99.90
23721;DHT22;42950;52.134;5.578;2024-02-14T08:50:53;10.80;99.90
23721;DHT22;42950;52.134;5.578;2024-02-14T08:53:19;10.80;99.90
23721;DHT22;42950;52.134;5.578;2024-02-14T08:55:44;10.80;99.90
23721;DHT22;42950;52.134;5.578;2024-02-14T08:58:10;10.80;99.90
23721;DHT22;42950;52.134;5.578;2024-02-14T09:00:36;10.90;99.90
23721;DHT22;42950;52.134;5.578;2024-02-14T09:03:03;10.90;99.90
23721;DHT22;42950;52.134;5.578;2024-02-14T09:05:28;10.90;99.90
23721;DHT22;42950;52.134;5.578;2024-02-14T09:07:54;10.90;99.90
23721;DHT22;42950;52.134;5.578;2024-02-14T09:10:21;10.90;99.90
23721;DHT22;42950;52.134;5.578;2024-02-14T09:12:47;10.90;99.90
23721;DHT22;42950;52.134;5.578;2024-02-14T09:15:13;10.90;99.90
23721;DHT22;42950;52.134;5.578;2024-02-14T09:17:39;11.00;99.90
23721;DHT22;42950;52.134;5.578;2024-02-14T09:20:09;11.00;99.90
23721;DHT22;42950;52.134;5.578;2024-02-14T09:22:35;11.00;99.90
23721;DHT22;42950;52.134;5.578;2024-02-14T09:25:02;11.00;99.90
23721;DHT22;42950;52.134;5.578;2024-02-14T09:27:30;11.00;99.90
23721;DHT22;42950;52.134;5.578;2024-02-14T09:29:56;11.00;99.90
23721;DHT22;42950;52.134;5.578;2024-02-14T09:32:21;11.00;99.90
23721;DHT22;42950;52.134;5.578;2024-02-14T09:34:47;11.00;99.90
23721;DHT22;42950;52.134;5.578;2024-02-14T09:37:12;11.00;99.90
23721;DHT22;42950;52.134;5.578;2024-02-14T09:39:38;11.00;99.90
23721;DHT22;42950;52.134;5.578;2024-02-14T09:42:08;11.00;99.90
23721;DHT22;42950;52.134;5.578;2024-02-14T09:44:35;11.00;99.90
23721;DHT22;42950;52.134;5.578;2024-02-14T09:47:03;10.90;99.90
23721;DHT22;42950;52.134;5.578;2024-02-14T09:49:31;11.00;99.90
23721;DHT22;42950;52.134;5.578;2024-02-14T09:51:58;11.00;99.90
23721;DHT22;42950;52.134;5.578;2024-02-14T09:54:24;11.00;99.90
23721;DHT22;42950;52.134;5.578;2024-02-14T09:56:52;11.00;99.90
23721;DHT22;42950;52.134;5.578;2024-02-14T09:59:22;11.00;99.90
23721;DHT22;42950;52.134;5.578;2024-02-14T10:01:48;11.10;99.90
23721;DHT22;42950;52.134;5.578;2024-02-14T10:04:16;11.10;99.90
23721;DHT22;42950;52.134;5.578;2024-02-14T10:06:43;11.10;99.90
23721;DHT22;42950;52.134;5.578;2024-02-14T10:09:09;11.00;99.90
23721;DHT22;42950;52.134;5.578;2024-02-14T10:11:35;11.00;99.90
23721;DHT22;42950;52.134;5.578;2024-02-14T10:14:02;11.00;99.90
23721;DHT22;42950;52.134;5.578;2024-02-14T10:16:29;11.10;99.90
23721;DHT22;42950;52.134;5.578;2024-02-14T10:18:55;11.10;99.90
23721;DHT22;42950;52.134;5.578;2024-02-14T10:21:21;11.10;99.90
23721;DHT22;42950;52.134;5.578;2024-02-14T10:23:47;11.10;99.90
23721;DHT22;42950;52.134;5.578;2024-02-14T10:26:15;11.20;99.90
23721;DHT22;42950;52.134;5.578;2024-02-14T10:28:44;11.20;99.90
23721;DHT22;42950;52.134;5.578;2024-02-14T10:31:12;11.20;99.90
23721;DHT22;42950;52.134;5.578;2024-02-14T10:33:38;11.20;99.90
23721;DHT22;42950;52.134;5.578;2024-02-14T10:36:07;11.30;99.90
23721;DHT22;42950;52.134;5.578;2024-02-14T10:38:33;11.30;99.90
23721;DHT22;42950;52.134;5.578;2024-02-14T10:41:02;11.30;99.90
23721;DHT22;42950;52.134;5.578;2024-02-14T10:43:28;11.30;99.90
23721;DHT22;42950;52.134;5.578;2024-02-14T10:45:55;11.30;99.90
23721;DHT22;42950;52.134;5.578;2024-02-14T10:48:22;11.40;99.90
23721;DHT22;42950;52.134;5.578;2024-02-14T10:50:54;11.40;99.90
23721;DHT22;42950;52.134;5.578;2024-02-14T10:53:25;11.40;99.90
23721;DHT22;42950;52.134;5.578;2024-02-14T10:55:51;11.40;99.90
23721;DHT22;42950;52.134;5.578;2024-02-14T10:58:18;11.40;99.90
23721;DHT22;42950;52.134;5.578;2024-02-14T11:00:45;11.50;99.90
23721;DHT22;42950;52.134;5.578;2024-02-14T11:03:12;11.50;99.90
23721;DHT22;42950;52.134;5.578;2024-02-14T11:05:47;11.50;99.90
23721;DHT22;42950;52.134;5.578;2024-02-14T11:08:22;11.60;99.90
23721;DHT22;42950;52.134;5.578;2024-02-14T11:10:55;11.60;99.90
23721;DHT22;42950;52.134;5.578;2024-02-14T11:13:27;11.60;99.90
23721;DHT22;42950;52.134;5.578;2024-02-14T11:15:53;11.70;99.90
23721;DHT22;42950;52.134;5.578;2024-02-14T11:18:26;11.60;99.90
23721;DHT22;42950;52.134;5.578;2024-02-14T11:20:52;11.60;99.90
23721;DHT22;42950;52.134;5.578;2024-02-14T11:23:22;11.70;99.90
23721;DHT22;42950;52.134;5.578;2024-02-14T11:25:47;11.70;99.90
23721;DHT22;42950;52.134;5.578;2024-02-14T11:28:23;11.70;99.90
23721;DHT22;42950;52.134;5.578;2024-02-14T11:30:51;11.70;99.90
23721;DHT22;42950;52.134;5.578;2024-02-14T11:35:45;11.70;99.90
23721;DHT22;42950;52.134;5.578;2024-02-14T11:38:11;11.70;99.90
23721;DHT22;42950;52.134;5.578;2024-02-14T11:40:37;11.80;99.90
23721;DHT22;42950;52.134;5.578;2024-02-14T11:43:17;11.70;99.90
23721;DHT22;42950;52.134;5.578;2024-02-14T11:45:43;11.80;99.90
23721;DHT22;42950;52.134;5.578;2024-02-14T11:48:13;11.70;99.90
23721;DHT22;42950;52.134;5.578;2024-02-14T11:50:40;11.70;99.90
23721;DHT22;42950;52.134;5.578;2024-02-14T11:53:06;11.70;99.90
23721;DHT22;42950;52.134;5.578;2024-02-14T11:55:40;11.70;99.90
23721;DHT22;42950;52.134;5.578;2024-02-14T11:58:16;11.70;99.90
23721;DHT22;42950;52.134;5.578;2024-02-14T12:00:46;11.70;99.90
23721;DHT22;42950;52.134;5.578;2024-02-14T12:03:25;11.70;99.90
23721;DHT22;42950;52.134;5.578;2024-02-14T12:05:51;11.70;99.90
23721;DHT22;42950;52.134;5.578;2024-02-14T12:08:18;11.70;99.90
23721;DHT22;42950;52.134;5.578;2024-02-14T12:10:44;11.80;99.90
23721;DHT22;42950;52.134;5.578;2024-02-14T12:13:16;11.80;99.90
23721;DHT22;42950;52.134;5.578;2024-02-14T12:15:45;11.80;99.90
23721;DHT22;42950;52.134;5.578;2024-02-14T12:18:11;11.70;99.90
23721;DHT22;42950;52.134;5.578;2024-02-14T12:20:42;11.90;99.90
23721;DHT22;42950;52.134;5.578;2024-02-14T12:23:14;11.80;99.90
23721;DHT22;42950;52.134;5.578;2024-02-14T12:25:43;11.90;99.90
23721;DHT22;42950;52.134;5.578;2024-02-14T12:28:13;11.90;99.90
23721;DHT22;42950;52.134;5.578;2024-02-14T12:30:46;11.90;99.90
23721;DHT22;42950;52.134;5.578;2024-02-14T12:33:13;11.90;99.90
23721;DHT22;42950;52.134;5.578;2024-02-14T12:35:45;11.90;99.90
23721;DHT22;42950;52.134;5.578;2024-02-14T12:38:13;11.80;99.90
23721;DHT22;42950;52.134;5.578;2024-02-14T12:40:39;11.90;99.90
23721;DHT22;42950;52.134;5.578;2024-02-14T12:43:10;11.90;99.90
23721;DHT22;42950;52.134;5.578;2024-02-14T12:45:39;11.80;99.90
23721;DHT22;42950;52.134;5.578;2024-02-14T12:48:06;11.90;99.90
23721;DHT22;42950;52.134;5.578;2024-02-14T12:50:34;11.90;99.90
23721;DHT22;42950;52.134;5.578;2024-02-14T12:53:04;11.80;99.90
23721;DHT22;42950;52.134;5.578;2024-02-14T12:55:30;11.90;99.90
23721;DHT22;42950;52.134;5.578;2024-02-14T12:57:59;11.90;99.90
23721;DHT22;42950;52.134;5.578;2024-02-14T13:00:25;11.90;99.90
23721;DHT22;42950;52.134;5.578;2024-02-14T13:02:52;11.90;99.90
23721;DHT22;42950;52.134;5.578;2024-02-14T13:05:19;11.90;99.90
23721;DHT22;42950;52.134;5.578;2024-02-14T13:07:45;11.90;99.90
23721;DHT22;42950;52.134;5.578;2024-02-14T13:10:13;11.80;99.90
23721;DHT22;42950;52.134;5.578;2024-02-14T13:12:39;11.90;99.90
23721;DHT22;42950;52.134;5.578;2024-02-14T13:15:05;11.80;99.90
23721;DHT22;42950;52.134;5.578;2024-02-14T13:17:34;11.80;99.90
23721;DHT22;42950;52.134;5.578;2024-02-14T13:20:00;11.80;99.90
23721;DHT22;42950;52.134;5.578;2024-02-14T13:22:26;11.90;99.90
23721;DHT22;42950;52.134;5.578;2024-02-14T13:24:53;11.90;99.90
23721;DHT22;42950;52.134;5.578;2024-02-14T13:27:19;11.90;99.90
23721;DHT22;42950;52.134;5.578;2024-02-14T13:29:47;11.90;99.90
23721;DHT22;42950;52.134;5.578;2024-02-14T13:32:13;11.90;99.90
23721;DHT22;42950;52.134;5.578;2024-02-14T13:34:40;11.90;99.90
23721;DHT22;42950;52.134;5.578;2024-02-14T13:37:06;12.00;99.90
23721;DHT22;42950;52.134;5.578;2024-02-14T13:39:31;12.00;99.90
23721;DHT22;42950;52.134;5.578;2024-02-14T13:41:58;12.00;99.90
23721;DHT22;42950;52.134;5.578;2024-02-14T13:44:25;11.90;99.90
23721;DHT22;42950;52.134;5.578;2024-02-14T13:46:51;12.00;99.90
23721;DHT22;42950;52.134;5.578;2024-02-14T13:49:18;12.00;99.90
23721;DHT22;42950;52.134;5.578;2024-02-14T13:51:51;12.00;99.90
23721;DHT22;42950;52.134;5.578;2024-02-14T13:54:17;12.00;99.90
23721;DHT22;42950;52.134;5.578;2024-02-14T13:56:44;12.00;99.90
23721;DHT22;42950;52.134;5.578;2024-02-14T13:59:14;12.10;99.90
23721;DHT22;42950;52.134;5.578;2024-02-14T14:01:40;12.00;99.90
23721;DHT22;42950;52.134;5.578;2024-02-14T14:04:06;12.10;99.90
23721;DHT22;42950;52.134;5.578;2024-02-14T14:06:32;12.00;99.90
23721;DHT22;42950;52.134;5.578;2024-02-14T14:08:58;12.00;99.90
23721;DHT22;42950;52.134;5.578;2024-02-14T14:11:25;12.10;99.90
23721;DHT22;42950;52.134;5.578;2024-02-14T14:13:51;12.10;99.90
23721;DHT22;42950;52.134;5.578;2024-02-14T14:16:16;12.10;99.90
23721;DHT22;42950;52.134;5.578;2024-02-14T14:18:43;12.10;99.90
23721;DHT22;42950;52.134;5.578;2024-02-14T14:21:08;12.10;99.90
23721;DHT22;42950;52.134;5.578;2024-02-14T14:23:34;12.10;99.90
23721;DHT22;42950;52.134;5.578;2024-02-14T14:26:00;12.10;99.90
23721;DHT22;42950;52.134;5.578;2024-02-14T14:28:27;12.20;99.90
23721;DHT22;42950;52.134;5.578;2024-02-14T14:30:56;12.20;99.90
23721;DHT22;42950;52.134;5.578;2024-02-14T14:33:22;12.10;99.90
23721;DHT22;42950;52.134;5.578;2024-02-14T14:35:48;12.20;99.90
23721;DHT22;42950;52.134;5.578;2024-02-14T14:38:20;12.20;99.90
23721;DHT22;42950;52.134;5.578;2024-02-14T14:40:47;12.20;99.90
23721;DHT22;42950;52.134;5.578;2024-02-14T14:43:16;12.20;99.90
23721;DHT22;42950;52.134;5.578;2024-02-14T14:45:44;12.20;99.90
23721;DHT22;42950;52.134;5.578;2024-02-14T14:48:10;12.20;99.90
23721;DHT22;42950;52.134;5.578;2024-02-14T14:50:36;12.20;99.90
23721;DHT22;42950;52.134;5.578;2024-02-14T14:53:03;12.20;99.90
23721;DHT22;42950;52.134;5.578;2024-02-14T14:55:53;12.20;99.90
23721;DHT22;42950;52.134;5.578;2024-02-14T14:58:20;12.30;99.90
23721;DHT22;42950;52.134;5.578;2024-02-14T15:00:47;12.20;99.90
23721;DHT22;42950;52.134;5.578;2024-02-14T15:03:13;12.30;99.90
23721;DHT22;42950;52.134;5.578;2024-02-14T15:05:39;12.30;99.90
23721;DHT22;42950;52.134;5.578;2024-02-14T15:08:07;12.30;99.90
23721;DHT22;42950;52.134;5.578;2024-02-14T15:10:33;12.30;99.90
23721;DHT22;42950;52.134;5.578;2024-02-14T15:13:00;12.30;99.90
23721;DHT22;42950;52.134;5.578;2024-02-14T15:15:26;12.30;99.90
23721;DHT22;42950;52.134;5.578;2024-02-14T15:17:51;12.30;99.90
23721;DHT22;42950;52.134;5.578;2024-02-14T15:20:18;12.30;99.90
23721;DHT22;42950;52.134;5.578;2024-02-14T15:22:44;12.40;99.90
23721;DHT22;42950;52.134;5.578;2024-02-14T15:25:10;12.40;99.90
23721;DHT22;42950;52.134;5.578;2024-02-14T15:27:36;12.40;99.90
23721;DHT22;42950;52.134;5.578;2024-02-14T15:30:07;12.40;99.90
23721;DHT22;42950;52.134;5.578;2024-02-14T15:32:51;12.40;99.90
23721;DHT22;42950;52.134;5.578;2024-02-14T15:35:35;12.40;99.90